Bahama, North Carolina
Current Conditions -  °F | °C
As of 4:35 PM on Tuesday 25 Nov 2014 (Local Time) from KTDF Reporting Station
Broken Clouds Broken Clouds  
Wind Chill: 54°   Ceiling: 11000
Heat Index: 54°   Visibility: 10mi
Dew Point: 37°   Wind: 0mph
Humidity: 54%   Direction: NA
Pressure: 30.08"   Gusts: NA
Location:  36.17°N, 78.88°W
Report Text: KTDF 252135Z AUTO 00000KT 10SM SCT035 BKN110 12/03 A3008 RMK AO2
Loading
Personal Weather Stations






























Interactive Weather Map New forecast layout! Learn more

10-Day Weather Forecast

Advertisements
Track Severe Weather on mobile